createdAt,value
2022-09-22T12:00:39.532Z,26.60
2022-09-22T12:03:28.693Z,27.20
2022-09-22T12:06:09.265Z,27.90
2022-09-22T12:09:04.334Z,27.00
2022-09-22T12:11:41.831Z,26.40
2022-09-22T12:14:15.392Z,25.40
2022-09-22T12:17:41.004Z,24.90
2022-09-22T12:20:57.242Z,24.40
2022-09-22T12:23:37.626Z,24.40
2022-09-22T12:26:09.305Z,25.20
2022-09-22T12:28:45.946Z,25.20
2022-09-22T12:31:19.808Z,25.90
2022-09-22T12:33:57.870Z,25.30
2022-09-22T12:36:40.221Z,24.30
2022-09-22T12:39:25.218Z,24.50
2022-09-22T12:42:00.336Z,24.90
2022-09-22T12:44:43.373Z,25.10
2022-09-22T12:47:41.778Z,24.60
2022-09-22T12:50:24.792Z,24.40
2022-09-22T12:52:52.038Z,23.50
2022-09-22T12:55:28.878Z,23.50
2022-09-22T12:58:04.117Z,24.60
2022-09-22T13:00:41.387Z,24.40
2022-09-22T13:03:26.909Z,25.30
2022-09-22T13:06:04.994Z,24.20
2022-09-22T13:08:35.906Z,24.90
2022-09-22T13:11:10.387Z,25.80
2022-09-22T13:13:41.823Z,26.10
2022-09-22T13:16:15.379Z,25.40
2022-09-22T13:19:03.570Z,25.80
2022-09-22T13:21:33.741Z,26.50
2022-09-22T13:24:05.242Z,27.00
2022-09-22T13:26:39.203Z,26.10
2022-09-22T13:29:12.332Z,25.50
2022-09-22T13:31:51.202Z,24.70
2022-09-22T13:34:31.738Z,25.80
2022-09-22T13:37:20.491Z,26.80
2022-09-22T13:39:54.001Z,28.10
2022-09-22T13:42:33.492Z,29.00
2022-09-22T13:45:24.375Z,31.10
2022-09-22T13:48:08.293Z,32.40
2022-09-22T13:50:55.411Z,34.40
2022-09-22T13:53:23.439Z,34.30
2022-09-22T13:58:39.237Z,35.40
2022-09-22T14:01:20.157Z,35.90
2022-09-22T14:03:50.764Z,36.00
2022-09-22T14:06:29.061Z,36.00
2022-09-22T14:08:56.952Z,36.70
2022-09-22T14:11:29.675Z,37.60
2022-09-22T14:14:08.944Z,39.10
2022-09-22T14:16:48.927Z,39.90
2022-09-22T14:19:34.216Z,39.70
2022-09-22T14:22:20.931Z,40.80
2022-09-22T14:24:54.288Z,41.70
2022-09-22T14:27:45.354Z,43.50
2022-09-22T14:30:31.494Z,42.10
2022-09-22T14:33:03.195Z,42.60
2022-09-22T14:35:33.111Z,42.50
2022-09-22T14:38:16.508Z,42.80
2022-09-22T14:40:58.886Z,42.90
2022-09-22T14:43:42.467Z,43.70
2022-09-22T14:46:34.922Z,44.00
2022-09-22T14:49:32.888Z,43.00
2022-09-22T14:52:07.509Z,44.10
2022-09-22T14:54:35.657Z,43.70
2022-09-22T14:57:07.832Z,44.40
2022-09-22T14:59:57.117Z,44.50
2022-09-22T15:02:35.873Z,44.60
2022-09-22T15:05:05.448Z,45.20
2022-09-22T15:07:46.593Z,45.40
2022-09-22T15:10:32.355Z,46.50
2022-09-22T15:13:31.783Z,46.10
2022-09-22T15:15:59.226Z,46.40
2022-09-22T15:18:30.552Z,46.90
2022-09-22T15:21:06.739Z,46.60
2022-09-22T15:23:47.690Z,47.30
2022-09-22T15:26:25.126Z,47.40
2022-09-22T15:28:55.548Z,47.20
2022-09-22T15:31:32.995Z,46.50
2022-09-22T15:34:03.946Z,46.90
2022-09-22T15:36:36.834Z,46.90
2022-09-22T15:39:21.729Z,47.50
2022-09-22T15:41:50.103Z,47.90
2022-09-22T15:44:17.729Z,48.00
2022-09-22T15:46:51.426Z,48.10
2022-09-22T15:49:26.648Z,49.10
2022-09-22T15:51:58.525Z,48.80
2022-09-22T15:54:27.445Z,49.30
2022-09-22T15:56:57.434Z,49.50
2022-09-22T15:59:28.552Z,50.00
2022-09-22T16:01:57.360Z,50.10
2022-09-22T16:07:05.611Z,50.30
2022-09-22T16:09:33.316Z,52.10
2022-09-22T16:12:01.010Z,51.20
2022-09-22T16:14:28.575Z,51.50
2022-09-22T16:16:55.943Z,51.90
2022-09-22T16:19:23.368Z,52.00
2022-09-22T16:21:54.621Z,52.20
2022-09-22T16:24:22.962Z,52.10
2022-09-22T16:26:51.995Z,51.40
2022-09-22T16:29:20.573Z,52.00
2022-09-22T16:31:49.170Z,52.10
2022-09-22T16:34:16.744Z,52.10
2022-09-22T16:36:45.318Z,52.10
2022-09-22T16:39:12.743Z,52.40
2022-09-22T16:41:45.494Z,52.20
2022-09-22T16:44:13.813Z,52.30
2022-09-22T16:46:41.324Z,52.90
2022-09-22T16:49:10.916Z,52.70
2022-09-22T16:51:44.801Z,53.20
2022-09-22T16:54:14.637Z,54.10
2022-09-22T16:56:48.136Z,54.60
2022-09-22T16:59:21.343Z,54.90
2022-09-22T17:01:50.248Z,55.60
2022-09-22T17:04:19.797Z,55.80
2022-09-22T17:06:47.772Z,56.10
2022-09-22T17:09:15.735Z,56.40
2022-09-22T17:11:45.856Z,56.80
2022-09-22T17:14:17.553Z,56.90
2022-09-22T17:16:50.001Z,57.30
2022-09-22T17:19:23.553Z,57.70
2022-09-22T17:21:53.362Z,58.10
2022-09-22T17:24:21.135Z,58.40
2022-09-22T17:26:55.866Z,58.80
2022-09-22T17:29:31.527Z,59.60
2022-09-22T17:32:03.347Z,59.80
2022-09-22T17:34:33.350Z,59.90
2022-09-22T17:37:03.226Z,60.70
2022-09-22T17:39:32.107Z,60.80
2022-09-22T17:41:59.978Z,61.40
2022-09-22T17:44:31.059Z,61.80
2022-09-22T17:47:17.293Z,62.50
2022-09-22T17:50:03.441Z,62.60
2022-09-22T17:52:35.280Z,62.40
2022-09-22T17:55:14.467Z,62.70
2022-09-22T17:57:45.291Z,63.00
2022-09-22T18:00:21.396Z,63.40
2022-09-22T18:02:54.549Z,64.00
2022-09-22T18:05:27.896Z,64.30
2022-09-22T18:07:58.726Z,66.10
2022-09-22T18:10:31.130Z,66.70
2022-09-22T18:13:00.400Z,67.00
2022-09-22T18:15:28.267Z,67.40
2022-09-22T18:17:58.336Z,67.40
2022-09-22T18:20:27.801Z,67.90
2022-09-22T18:22:56.212Z,68.00
2022-09-22T18:25:25.859Z,67.80
2022-09-22T18:27:53.854Z,67.90
2022-09-22T18:30:21.249Z,69.10
2022-09-22T18:32:49.588Z,69.60
2022-09-22T18:35:17.716Z,70.10
2022-09-22T18:37:45.088Z,70.60
2022-09-22T18:40:12.889Z,71.40
2022-09-22T18:42:43.441Z,72.10
2022-09-22T18:45:14.409Z,72.40
2022-09-22T18:47:43.958Z,72.80
2022-09-22T18:50:12.466Z,73.30
2022-09-22T18:52:43.388Z,73.50
2022-09-22T18:55:11.944Z,73.90
2022-09-22T18:57:39.531Z,73.90
2022-09-22T19:00:07.917Z,73.80
2022-09-22T19:02:35.412Z,74.50
2022-09-22T19:05:02.875Z,74.20
2022-09-22T19:07:42.476Z,74.20
2022-09-22T19:10:14.931Z,74.10
2022-09-22T19:12:43.001Z,74.50
2022-09-22T19:15:14.051Z,74.50
2022-09-22T19:17:47.186Z,74.00
2022-09-22T19:20:24.220Z,74.00
2022-09-22T19:22:52.742Z,74.50
2022-09-22T19:25:21.956Z,74.70
2022-09-22T19:27:52.603Z,74.60
2022-09-22T19:30:24.123Z,74.60
2022-09-22T19:32:54.618Z,74.90
